Muzaffarabad Weather



Muzaffarabad's Current Weather

Temprature 1.08o overcast clouds

overcast clouds

Rain: 0 %

Min Temprature1.08o
Max Temprature1.08o
Humidity68
Wind Speed3.77 m/h
Sun Rise07:02:45
Sun Set16:56:36
Current Time: 12-Dec-2019 01:29:25
Lat/Lon: 34.37, 73.47




Muzaffarabad's Geo Location



Muzaffarabad's Weather Forecast

Time Overall Temp Min Temp Max Temp Humidity Wind Speed Rain
12-Dec-2019 (Thu)
02:00:00 overcast clouds 1.080 1.080 1.080 68 3.77 m/h 0 %
05:00:00 overcast clouds 0.750 0.750 0.750 67 3.73 m/h 0 %
08:00:00 overcast clouds 1.260 1.260 1.260 66 4.06 m/h 0 %
11:00:00 overcast clouds 6.320 6.320 6.320 60 1.47 m/h 0 %
14:00:00 light rain 7.050 7.050 7.050 59 1.75 m/h 44 %
17:00:00 light rain 3.170 3.170 3.170 82 0.89 m/h 44 %
20:00:00 overcast clouds 2.440 2.440 2.440 84 0.16 m/h 0 %
23:00:00 light snow 1.710 1.710 1.710 83 0.95 m/h 0 %
13-Dec-2019 (Fri)
02:00:00 snow 0.740 0.740 0.740 95 1.38 m/h 0 %
05:00:00 snow 1.060 1.060 1.060 93 0.89 m/h 0 %
08:00:00 overcast clouds 1.570 1.570 1.570 87 0.51 m/h 0 %
11:00:00 overcast clouds 4.120 4.120 4.120 82 1.71 m/h 0 %
14:00:00 light rain 3.460 3.460 3.460 92 1.95 m/h 106 %
17:00:00 light rain 2.610 2.610 2.610 95 1.58 m/h 69 %
20:00:00 light snow 1.510 1.510 1.510 98 0.26 m/h 0 %
23:00:00 light snow 1.400 1.400 1.400 90 0.63 m/h 0 %
14-Dec-2019 (Sat)
02:00:00 snow 0.550 0.550 0.550 94 1.09 m/h 0 %
05:00:00 snow 0.790 0.790 0.790 90 1.07 m/h 0 %
08:00:00 snow 1.080 1.080 1.080 85 1.24 m/h 0 %
11:00:00 light snow 3.190 3.190 3.190 85 1.93 m/h 0 %
14:00:00 light rain 3.970 3.970 3.970 83 1.33 m/h 131 %
17:00:00 light snow 2.140 2.140 2.140 89 0.34 m/h 0 %
20:00:00 light snow 1.480 1.480 1.480 92 0.97 m/h 0 %
23:00:00 light snow 1.070 1.070 1.070 81 1.97 m/h 0 %
15-Dec-2019 (Sun)
02:00:00 light snow 0.360 0.360 0.360 82 2.88 m/h 0 %
05:00:00 light snow -1.460 -1.460 -1.460 75 3.39 m/h 0 %
08:00:00 clear sky -1.060 -1.060 -1.060 71 3.48 m/h 0 %
11:00:00 clear sky 5.280 5.280 5.280 59 1.23 m/h 0 %
14:00:00 light snow 6.300 6.300 6.300 52 1.16 m/h 0 %
17:00:00 light snow 2.020 2.020 2.020 68 1.6 m/h 0 %
20:00:00 clear sky -1.060 -1.060 -1.060 67 4.4 m/h 0 %
23:00:00 clear sky -1.930 -1.930 -1.930 60 4.45 m/h 0 %
16-Dec-2019 (Mon)
02:00:00 clear sky -2.360 -2.360 -2.360 57 4.46 m/h 0 %
05:00:00 clear sky -2.510 -2.510 -2.510 57 4.49 m/h 0 %
08:00:00 clear sky -1.510 -1.510 -1.510 57 4.2 m/h 0 %
11:00:00 clear sky 5.380 5.380 5.380 47 1.3 m/h 0 %
14:00:00 light snow 6.350 6.350 6.350 45 1.2 m/h 0 %
17:00:00 light rain 1.750 1.750 1.750 61 2.11 m/h 13 %
20:00:00 clear sky -1.780 -1.780 -1.780 59 5.05 m/h 0 %
23:00:00 clear sky -2.290 -2.290 -2.290 54 4.87 m/h 0 %

Famous Cities (61)